sensor_id;sensor_type;location;lat;lon;timestamp;temperature;humidity
23207;DHT22;11773;52.570;13.052;2023-05-07T00:00:29;11.30;99.90
23207;DHT22;11773;52.570;13.052;2023-05-07T00:02:58;11.30;99.90
23207;DHT22;11773;52.570;13.052;2023-05-07T00:05:29;11.40;99.90
23207;DHT22;11773;52.570;13.052;2023-05-07T00:07:59;11.40;99.90
23207;DHT22;11773;52.570;13.052;2023-05-07T00:10:28;11.30;99.90
23207;DHT22;11773;52.570;13.052;2023-05-07T00:12:58;11.40;99.90
23207;DHT22;11773;52.570;13.052;2023-05-07T00:15:28;11.30;99.90
23207;DHT22;11773;52.570;13.052;2023-05-07T00:17:58;11.20;99.90
23207;DHT22;11773;52.570;13.052;2023-05-07T00:20:27;11.40;99.90
23207;DHT22;11773;52.570;13.052;2023-05-07T00:22:57;11.50;99.90
23207;DHT22;11773;52.570;13.052;2023-05-07T00:25:26;11.50;99.90
23207;DHT22;11773;52.570;13.052;2023-05-07T00:27:56;11.30;99.90
23207;DHT22;11773;52.570;13.052;2023-05-07T00:30:27;11.40;99.90
23207;DHT22;11773;52.570;13.052;2023-05-07T00:32:57;11.40;99.90
23207;DHT22;11773;52.570;13.052;2023-05-07T00:35:27;11.50;99.90
23207;DHT22;11773;52.570;13.052;2023-05-07T00:37:58;11.40;99.90
23207;DHT22;11773;52.570;13.052;2023-05-07T00:40:28;11.50;99.90
23207;DHT22;11773;52.570;13.052;2023-05-07T00:42:57;11.50;99.90
23207;DHT22;11773;52.570;13.052;2023-05-07T00:45:28;11.50;99.90
23207;DHT22;11773;52.570;13.052;2023-05-07T00:48:01;11.50;99.90
23207;DHT22;11773;52.570;13.052;2023-05-07T00:50:32;11.60;99.90
23207;DHT22;11773;52.570;13.052;2023-05-07T00:53:02;11.70;99.90
23207;DHT22;11773;52.570;13.052;2023-05-07T00:55:33;11.70;99.90
23207;DHT22;11773;52.570;13.052;2023-05-07T00:58:04;11.50;99.90
23207;DHT22;11773;52.570;13.052;2023-05-07T01:00:34;11.40;99.90
23207;DHT22;11773;52.570;13.052;2023-05-07T01:03:05;11.60;99.90
23207;DHT22;11773;52.570;13.052;2023-05-07T01:05:35;11.60;99.90
23207;DHT22;11773;52.570;13.052;2023-05-07T01:08:06;11.40;99.90
23207;DHT22;11773;52.570;13.052;2023-05-07T01:10:35;11.40;99.90
23207;DHT22;11773;52.570;13.052;2023-05-07T01:13:05;11.40;99.90
23207;DHT22;11773;52.570;13.052;2023-05-07T01:15:35;11.50;99.90
23207;DHT22;11773;52.570;13.052;2023-05-07T01:18:05;11.20;99.90
23207;DHT22;11773;52.570;13.052;2023-05-07T01:20:35;11.40;99.90
23207;DHT22;11773;52.570;13.052;2023-05-07T01:23:05;11.40;99.90
23207;DHT22;11773;52.570;13.052;2023-05-07T01:25:36;11.40;99.90
23207;DHT22;11773;52.570;13.052;2023-05-07T01:28:05;11.30;99.90
23207;DHT22;11773;52.570;13.052;2023-05-07T01:30:36;11.40;99.90
23207;DHT22;11773;52.570;13.052;2023-05-07T01:33:13;11.40;99.90
23207;DHT22;11773;52.570;13.052;2023-05-07T01:35:47;11.50;99.90
23207;DHT22;11773;52.570;13.052;2023-05-07T01:38:20;11.20;99.90
23207;DHT22;11773;52.570;13.052;2023-05-07T01:40:51;11.40;99.90
23207;DHT22;11773;52.570;13.052;2023-05-07T01:43:21;11.60;99.90
23207;DHT22;11773;52.570;13.052;2023-05-07T01:45:51;11.60;99.90
23207;DHT22;11773;52.570;13.052;2023-05-07T01:48:22;11.60;99.90
23207;DHT22;11773;52.570;13.052;2023-05-07T01:50:54;11.50;99.90
23207;DHT22;11773;52.570;13.052;2023-05-07T01:53:27;11.60;99.90
23207;DHT22;11773;52.570;13.052;2023-05-07T01:55:57;11.60;99.90
23207;DHT22;11773;52.570;13.052;2023-05-07T01:58:27;11.50;99.90
23207;DHT22;11773;52.570;13.052;2023-05-07T02:00:56;11.50;99.90
23207;DHT22;11773;52.570;13.052;2023-05-07T02:03:26;11.60;99.90
23207;DHT22;11773;52.570;13.052;2023-05-07T02:05:56;11.50;99.90
23207;DHT22;11773;52.570;13.052;2023-05-07T02:08:25;11.50;99.90
23207;DHT22;11773;52.570;13.052;2023-05-07T02:10:55;11.40;99.90
23207;DHT22;11773;52.570;13.052;2023-05-07T02:13:28;11.40;99.90
23207;DHT22;11773;52.570;13.052;2023-05-07T02:15:58;11.30;99.90
23207;DHT22;11773;52.570;13.052;2023-05-07T02:18:28;11.30;99.90
23207;DHT22;11773;52.570;13.052;2023-05-07T02:20:58;11.20;99.90
23207;DHT22;11773;52.570;13.052;2023-05-07T02:23:27;11.30;99.90
23207;DHT22;11773;52.570;13.052;2023-05-07T02:25:57;11.30;99.90
23207;DHT22;11773;52.570;13.052;2023-05-07T02:28:26;11.30;99.90
23207;DHT22;11773;52.570;13.052;2023-05-07T02:30:56;11.30;99.90
23207;DHT22;11773;52.570;13.052;2023-05-07T02:33:28;11.30;99.90
23207;DHT22;11773;52.570;13.052;2023-05-07T02:36:06;11.30;99.90
23207;DHT22;11773;52.570;13.052;2023-05-07T02:38:37;11.20;99.90
23207;DHT22;11773;52.570;13.052;2023-05-07T02:41:07;11.20;99.90
23207;DHT22;11773;52.570;13.052;2023-05-07T02:43:37;11.20;99.90
23207;DHT22;11773;52.570;13.052;2023-05-07T02:46:07;11.40;99.90
23207;DHT22;11773;52.570;13.052;2023-05-07T02:48:38;11.40;99.90
23207;DHT22;11773;52.570;13.052;2023-05-07T02:51:07;11.40;99.90
23207;DHT22;11773;52.570;13.052;2023-05-07T02:53:37;11.30;99.90
23207;DHT22;11773;52.570;13.052;2023-05-07T02:56:07;11.30;99.90
23207;DHT22;11773;52.570;13.052;2023-05-07T02:58:36;11.30;99.90
23207;DHT22;11773;52.570;13.052;2023-05-07T03:01:13;11.20;99.90
23207;DHT22;11773;52.570;13.052;2023-05-07T03:03:42;11.30;99.90
23207;DHT22;11773;52.570;13.052;2023-05-07T03:06:13;11.30;99.90
23207;DHT22;11773;52.570;13.052;2023-05-07T03:08:43;11.40;99.90
23207;DHT22;11773;52.570;13.052;2023-05-07T03:11:12;11.40;99.90
23207;DHT22;11773;52.570;13.052;2023-05-07T03:13:42;11.30;99.90
23207;DHT22;11773;52.570;13.052;2023-05-07T03:16:12;11.10;99.90
23207;DHT22;11773;52.570;13.052;2023-05-07T03:18:41;11.30;99.90
23207;DHT22;11773;52.570;13.052;2023-05-07T03:21:11;11.20;99.90
23207;DHT22;11773;52.570;13.052;2023-05-07T03:23:41;11.10;99.90
23207;DHT22;11773;52.570;13.052;2023-05-07T03:26:10;11.10;99.90
23207;DHT22;11773;52.570;13.052;2023-05-07T03:28:40;11.00;99.90
23207;DHT22;11773;52.570;13.052;2023-05-07T03:31:09;11.20;99.90
23207;DHT22;11773;52.570;13.052;2023-05-07T03:33:50;11.20;99.90
23207;DHT22;11773;52.570;13.052;2023-05-07T03:36:21;11.10;99.90
23207;DHT22;11773;52.570;13.052;2023-05-07T03:38:53;11.30;99.90
23207;DHT22;11773;52.570;13.052;2023-05-07T03:41:23;11.30;99.90
23207;DHT22;11773;52.570;13.052;2023-05-07T03:43:53;11.30;99.90
23207;DHT22;11773;52.570;13.052;2023-05-07T03:46:23;11.30;99.90
23207;DHT22;11773;52.570;13.052;2023-05-07T03:48:54;11.30;99.90
23207;DHT22;11773;52.570;13.052;2023-05-07T03:51:24;11.20;99.90
23207;DHT22;11773;52.570;13.052;2023-05-07T03:53:54;11.20;99.90
23207;DHT22;11773;52.570;13.052;2023-05-07T03:56:24;11.20;99.90
23207;DHT22;11773;52.570;13.052;2023-05-07T03:58:55;11.10;99.90
23207;DHT22;11773;52.570;13.052;2023-05-07T04:01:25;11.20;99.90
23207;DHT22;11773;52.570;13.052;2023-05-07T04:03:55;11.20;99.90
23207;DHT22;11773;52.570;13.052;2023-05-07T04:06:25;11.10;99.90
23207;DHT22;11773;52.570;13.052;2023-05-07T04:08:55;11.10;99.90
23207;DHT22;11773;52.570;13.052;2023-05-07T04:11:24;11.10;99.90
23207;DHT22;11773;52.570;13.052;2023-05-07T04:13:54;10.90;99.90
23207;DHT22;11773;52.570;13.052;2023-05-07T04:16:24;11.10;99.90
23207;DHT22;11773;52.570;13.052;2023-05-07T04:18:53;11.20;99.90
23207;DHT22;11773;52.570;13.052;2023-05-07T04:21:23;11.10;99.90
23207;DHT22;11773;52.570;13.052;2023-05-07T04:23:54;11.10;99.90
23207;DHT22;11773;52.570;13.052;2023-05-07T04:26:24;11.10;99.90
23207;DHT22;11773;52.570;13.052;2023-05-07T04:28:54;11.10;99.90
23207;DHT22;11773;52.570;13.052;2023-05-07T04:31:25;11.10;99.90
23207;DHT22;11773;52.570;13.052;2023-05-07T04:33:55;11.00;99.90
23207;DHT22;11773;52.570;13.052;2023-05-07T04:36:24;11.10;99.90
23207;DHT22;11773;52.570;13.052;2023-05-07T04:38:57;11.00;99.90
23207;DHT22;11773;52.570;13.052;2023-05-07T04:41:27;11.10;99.90
23207;DHT22;11773;52.570;13.052;2023-05-07T04:43:56;11.00;99.90
23207;DHT22;11773;52.570;13.052;2023-05-07T04:46:26;11.10;99.90
23207;DHT22;11773;52.570;13.052;2023-05-07T04:48:56;11.10;99.90
23207;DHT22;11773;52.570;13.052;2023-05-07T04:51:26;11.00;99.90
23207;DHT22;11773;52.570;13.052;2023-05-07T04:53:55;11.00;99.90
23207;DHT22;11773;52.570;13.052;2023-05-07T04:56:32;11.10;99.90
23207;DHT22;11773;52.570;13.052;2023-05-07T04:58:58;11.00;99.90
23207;DHT22;11773;52.570;13.052;2023-05-07T05:01:27;11.00;99.90
23207;DHT22;11773;52.570;13.052;2023-05-07T05:03:57;11.00;99.90
23207;DHT22;11773;52.570;13.052;2023-05-07T05:06:29;11.10;99.90
23207;DHT22;11773;52.570;13.052;2023-05-07T05:08:58;11.20;99.90
23207;DHT22;11773;52.570;13.052;2023-05-07T05:11:28;11.20;99.90
23207;DHT22;11773;52.570;13.052;2023-05-07T05:13:59;11.00;99.90
23207;DHT22;11773;52.570;13.052;2023-05-07T05:16:29;11.00;99.90
23207;DHT22;11773;52.570;13.052;2023-05-07T05:19:01;11.00;99.90
23207;DHT22;11773;52.570;13.052;2023-05-07T05:21:32;11.00;99.90
23207;DHT22;11773;52.570;13.052;2023-05-07T05:24:02;11.10;99.90
23207;DHT22;11773;52.570;13.052;2023-05-07T05:26:31;11.00;99.90
23207;DHT22;11773;52.570;13.052;2023-05-07T05:29:01;11.10;99.90
23207;DHT22;11773;52.570;13.052;2023-05-07T05:31:31;11.10;99.90
23207;DHT22;11773;52.570;13.052;2023-05-07T05:34:02;11.10;99.90
23207;DHT22;11773;52.570;13.052;2023-05-07T05:36:31;11.10;99.90
23207;DHT22;11773;52.570;13.052;2023-05-07T05:39:01;10.90;99.90
23207;DHT22;11773;52.570;13.052;2023-05-07T05:41:30;11.00;99.90
23207;DHT22;11773;52.570;13.052;2023-05-07T05:44:00;11.10;99.90
23207;DHT22;11773;52.570;13.052;2023-05-07T05:46:30;11.20;99.90
23207;DHT22;11773;52.570;13.052;2023-05-07T05:49:01;11.10;99.90
23207;DHT22;11773;52.570;13.052;2023-05-07T05:51:31;11.10;99.90
23207;DHT22;11773;52.570;13.052;2023-05-07T05:54:00;11.20;99.90
23207;DHT22;11773;52.570;13.052;2023-05-07T05:56:30;11.20;99.90
23207;DHT22;11773;52.570;13.052;2023-05-07T05:59:00;11.10;99.90
23207;DHT22;11773;52.570;13.052;2023-05-07T06:01:29;11.20;99.90
23207;DHT22;11773;52.570;13.052;2023-05-07T06:03:59;11.40;99.90
23207;DHT22;11773;52.570;13.052;2023-05-07T06:06:28;11.50;99.90
23207;DHT22;11773;52.570;13.052;2023-05-07T06:08:59;11.70;99.90
23207;DHT22;11773;52.570;13.052;2023-05-07T06:11:29;11.80;99.90
23207;DHT22;11773;52.570;13.052;2023-05-07T06:14:00;11.90;99.90
23207;DHT22;11773;52.570;13.052;2023-05-07T06:16:29;12.10;99.90
23207;DHT22;11773;52.570;13.052;2023-05-07T06:18:59;12.10;99.90
23207;DHT22;11773;52.570;13.052;2023-05-07T06:21:28;12.10;99.90
23207;DHT22;11773;52.570;13.052;2023-05-07T06:23:58;12.20;99.90
23207;DHT22;11773;52.570;13.052;2023-05-07T06:26:28;12.10;99.90
23207;DHT22;11773;52.570;13.052;2023-05-07T06:28:57;12.20;99.90
23207;DHT22;11773;52.570;13.052;2023-05-07T06:31:29;12.20;99.90
23207;DHT22;11773;52.570;13.052;2023-05-07T06:33:59;12.30;99.90
23207;DHT22;11773;52.570;13.052;2023-05-07T06:36:30;12.50;99.90
23207;DHT22;11773;52.570;13.052;2023-05-07T06:38:59;12.40;99.90
23207;DHT22;11773;52.570;13.052;2023-05-07T06:41:29;12.50;99.90
23207;DHT22;11773;52.570;13.052;2023-05-07T06:43:58;12.50;99.90
23207;DHT22;11773;52.570;13.052;2023-05-07T06:46:28;12.80;99.90
23207;DHT22;11773;52.570;13.052;2023-05-07T06:48:58;13.20;99.90
23207;DHT22;11773;52.570;13.052;2023-05-07T06:51:27;13.30;99.90
23207;DHT22;11773;52.570;13.052;2023-05-07T06:53:57;13.40;99.90
23207;DHT22;11773;52.570;13.052;2023-05-07T06:56:27;13.70;99.90
23207;DHT22;11773;52.570;13.052;2023-05-07T06:58:56;13.80;99.90
23207;DHT22;11773;52.570;13.052;2023-05-07T07:01:26;13.60;99.90
23207;DHT22;11773;52.570;13.052;2023-05-07T07:03:56;13.70;99.90
23207;DHT22;11773;52.570;13.052;2023-05-07T07:06:26;13.60;99.90
23207;DHT22;11773;52.570;13.052;2023-05-07T07:08:56;13.30;99.90
23207;DHT22;11773;52.570;13.052;2023-05-07T07:11:25;13.30;99.90
23207;DHT22;11773;52.570;13.052;2023-05-07T07:13:55;13.40;99.90
23207;DHT22;11773;52.570;13.052;2023-05-07T07:16:24;13.10;99.90
23207;DHT22;11773;52.570;13.052;2023-05-07T07:18:54;13.30;99.90
23207;DHT22;11773;52.570;13.052;2023-05-07T07:21:23;13.20;99.90
23207;DHT22;11773;52.570;13.052;2023-05-07T07:23:53;13.20;99.90
23207;DHT22;11773;52.570;13.052;2023-05-07T07:26:22;13.00;99.90
23207;DHT22;11773;52.570;13.052;2023-05-07T07:28:52;13.20;99.90
23207;DHT22;11773;52.570;13.052;2023-05-07T07:31:22;13.20;99.90
23207;DHT22;11773;52.570;13.052;2023-05-07T07:33:51;13.30;99.90
23207;DHT22;11773;52.570;13.052;2023-05-07T07:36:21;13.30;99.90
23207;DHT22;11773;52.570;13.052;2023-05-07T07:38:53;13.30;99.90
23207;DHT22;11773;52.570;13.052;2023-05-07T07:41:22;13.40;99.90
23207;DHT22;11773;52.570;13.052;2023-05-07T07:43:53;13.80;99.90
23207;DHT22;11773;52.570;13.052;2023-05-07T07:46:22;14.00;99.90
23207;DHT22;11773;52.570;13.052;2023-05-07T07:48:52;14.00;99.90
23207;DHT22;11773;52.570;13.052;2023-05-07T07:51:21;14.00;99.90
23207;DHT22;11773;52.570;13.052;2023-05-07T07:53:51;14.20;99.90
23207;DHT22;11773;52.570;13.052;2023-05-07T07:56:20;14.20;99.90
23207;DHT22;11773;52.570;13.052;2023-05-07T07:58:50;14.20;99.90
23207;DHT22;11773;52.570;13.052;2023-05-07T08:01:19;14.20;99.90
23207;DHT22;11773;52.570;13.052;2023-05-07T08:03:49;14.40;99.90
23207;DHT22;11773;52.570;13.052;2023-05-07T08:06:20;15.00;99.90
23207;DHT22;11773;52.570;13.052;2023-05-07T08:08:50;14.80;99.90
23207;DHT22;11773;52.570;13.052;2023-05-07T08:11:20;14.70;99.90
23207;DHT22;11773;52.570;13.052;2023-05-07T08:13:49;14.60;99.90
23207;DHT22;11773;52.570;13.052;2023-05-07T08:16:21;14.60;99.90
23207;DHT22;11773;52.570;13.052;2023-05-07T08:18:51;14.60;99.90
23207;DHT22;11773;52.570;13.052;2023-05-07T08:21:21;14.70;99.90
23207;DHT22;11773;52.570;13.052;2023-05-07T08:23:51;14.90;99.90
23207;DHT22;11773;52.570;13.052;2023-05-07T08:26:21;15.00;99.90
23207;DHT22;11773;52.570;13.052;2023-05-07T08:28:50;15.00;99.90
23207;DHT22;11773;52.570;13.052;2023-05-07T08:31:20;15.10;99.90
23207;DHT22;11773;52.570;13.052;2023-05-07T08:33:50;15.10;99.90
23207;DHT22;11773;52.570;13.052;2023-05-07T08:36:20;15.30;99.90
23207;DHT22;11773;52.570;13.052;2023-05-07T08:38:49;15.30;99.90
23207;DHT22;11773;52.570;13.052;2023-05-07T08:41:19;15.40;99.90
23207;DHT22;11773;52.570;13.052;2023-05-07T08:43:49;15.50;99.90
23207;DHT22;11773;52.570;13.052;2023-05-07T08:46:21;15.70;99.90
23207;DHT22;11773;52.570;13.052;2023-05-07T08:48:51;15.90;99.90
23207;DHT22;11773;52.570;13.052;2023-05-07T08:51:21;15.80;99.90
23207;DHT22;11773;52.570;13.052;2023-05-07T08:53:51;16.10;99.90
23207;DHT22;11773;52.570;13.052;2023-05-07T08:56:20;16.40;99.90
23207;DHT22;11773;52.570;13.052;2023-05-07T08:58:50;16.50;99.90
23207;DHT22;11773;52.570;13.052;2023-05-07T09:01:21;16.40;99.90
23207;DHT22;11773;52.570;13.052;2023-05-07T09:03:52;16.40;99.90
23207;DHT22;11773;52.570;13.052;2023-05-07T09:06:22;16.30;99.90
23207;DHT22;11773;52.570;13.052;2023-05-07T09:08:54;16.50;99.90
23207;DHT22;11773;52.570;13.052;2023-05-07T09:11:25;16.40;99.90
23207;DHT22;11773;52.570;13.052;2023-05-07T09:13:56;16.40;99.90
23207;DHT22;11773;52.570;13.052;2023-05-07T09:16:29;16.80;99.90
23207;DHT22;11773;52.570;13.052;2023-05-07T09:18:59;16.90;99.90
23207;DHT22;11773;52.570;13.052;2023-05-07T09:21:29;16.90;99.90
23207;DHT22;11773;52.570;13.052;2023-05-07T09:23:59;16.80;99.90
23207;DHT22;11773;52.570;13.052;2023-05-07T09:26:28;16.70;99.90
23207;DHT22;11773;52.570;13.052;2023-05-07T09:29:00;16.70;99.90
23207;DHT22;11773;52.570;13.052;2023-05-07T09:31:29;16.90;99.90
23207;DHT22;11773;52.570;13.052;2023-05-07T09:33:59;16.60;99.90
23207;DHT22;11773;52.570;13.052;2023-05-07T09:36:29;16.60;99.90
23207;DHT22;11773;52.570;13.052;2023-05-07T09:39:00;16.70;99.90
23207;DHT22;11773;52.570;13.052;2023-05-07T09:41:30;16.70;99.90
23207;DHT22;11773;52.570;13.052;2023-05-07T09:44:01;17.00;99.90
23207;DHT22;11773;52.570;13.052;2023-05-07T09:46:31;16.90;99.90
23207;DHT22;11773;52.570;13.052;2023-05-07T09:49:06;16.80;99.90
23207;DHT22;11773;52.570;13.052;2023-05-07T09:51:45;16.80;99.90
23207;DHT22;11773;52.570;13.052;2023-05-07T09:54:18;17.00;99.90
23207;DHT22;11773;52.570;13.052;2023-05-07T09:56:52;16.70;99.90
23207;DHT22;11773;52.570;13.052;2023-05-07T09:59:23;16.70;99.90
23207;DHT22;11773;52.570;13.052;2023-05-07T10:01:57;16.90;99.90
23207;DHT22;11773;52.570;13.052;2023-05-07T10:04:30;16.80;99.90
23207;DHT22;11773;52.570;13.052;2023-05-07T10:07:00;16.90;99.90
23207;DHT22;11773;52.570;13.052;2023-05-07T10:09:32;17.00;99.90
23207;DHT22;11773;52.570;13.052;2023-05-07T10:12:04;17.10;99.90
23207;DHT22;11773;52.570;13.052;2023-05-07T10:14:35;17.40;99.90
23207;DHT22;11773;52.570;13.052;2023-05-07T10:17:05;17.50;99.90
23207;DHT22;11773;52.570;13.052;2023-05-07T10:19:36;17.50;99.90
23207;DHT22;11773;52.570;13.052;2023-05-07T10:22:08;17.20;99.90
23207;DHT22;11773;52.570;13.052;2023-05-07T10:24:38;17.20;99.90
23207;DHT22;11773;52.570;13.052;2023-05-07T10:27:10;17.00;99.90
23207;DHT22;11773;52.570;13.052;2023-05-07T10:30:12;16.70;99.90
23207;DHT22;11773;52.570;13.052;2023-05-07T10:32:43;16.70;99.90
23207;DHT22;11773;52.570;13.052;2023-05-07T10:35:26;17.10;99.90
23207;DHT22;11773;52.570;13.052;2023-05-07T10:37:59;17.20;99.90
23207;DHT22;11773;52.570;13.052;2023-05-07T10:40:29;17.30;99.90
23207;DHT22;11773;52.570;13.052;2023-05-07T10:43:01;17.20;99.90
23207;DHT22;11773;52.570;13.052;2023-05-07T10:45:36;17.60;99.90
23207;DHT22;11773;52.570;13.052;2023-05-07T10:48:13;17.60;99.90
23207;DHT22;11773;52.570;13.052;2023-05-07T10:50:45;17.60;99.90
23207;DHT22;11773;52.570;13.052;2023-05-07T10:53:20;17.30;99.90
23207;DHT22;11773;52.570;13.052;2023-05-07T10:58:47;17.00;99.90
23207;DHT22;11773;52.570;13.052;2023-05-07T11:01:48;17.40;99.90
23207;DHT22;11773;52.570;13.052;2023-05-07T11:04:15;17.20;99.90
23207;DHT22;11773;52.570;13.052;2023-05-07T11:09:54;17.20;99.90
23207;DHT22;11773;52.570;13.052;2023-05-07T11:15:13;17.30;99.90
23207;DHT22;11773;52.570;13.052;2023-05-07T11:17:56;17.60;99.90
23207;DHT22;11773;52.570;13.052;2023-05-07T11:20:52;17.60;99.90
23207;DHT22;11773;52.570;13.052;2023-05-07T11:26:10;17.50;99.90
23207;DHT22;11773;52.570;13.052;2023-05-07T11:28:41;17.60;99.90
23207;DHT22;11773;52.570;13.052;2023-05-07T11:31:11;17.70;99.90
23207;DHT22;11773;52.570;13.052;2023-05-07T11:33:41;17.70;99.90
23207;DHT22;11773;52.570;13.052;2023-05-07T11:36:12;17.70;99.90
23207;DHT22;11773;52.570;13.052;2023-05-07T11:38:42;17.60;99.90
23207;DHT22;11773;52.570;13.052;2023-05-07T11:41:12;17.60;99.90
23207;DHT22;11773;52.570;13.052;2023-05-07T11:43:55;17.70;99.90
23207;DHT22;11773;52.570;13.052;2023-05-07T11:46:27;17.60;99.90
23207;DHT22;11773;52.570;13.052;2023-05-07T11:48:57;17.60;99.90
23207;DHT22;11773;52.570;13.052;2023-05-07T11:51:26;17.50;99.90
23207;DHT22;11773;52.570;13.052;2023-05-07T11:53:56;17.60;99.90
23207;DHT22;11773;52.570;13.052;2023-05-07T11:56:26;17.30;99.90
23207;DHT22;11773;52.570;13.052;2023-05-07T11:58:55;17.10;99.90
23207;DHT22;11773;52.570;13.052;2023-05-07T12:01:25;17.20;99.90
23207;DHT22;11773;52.570;13.052;2023-05-07T12:03:54;17.40;99.90
23207;DHT22;11773;52.570;13.052;2023-05-07T12:06:24;17.70;99.90
23207;DHT22;11773;52.570;13.052;2023-05-07T12:08:54;17.60;99.90
23207;DHT22;11773;52.570;13.052;2023-05-07T12:11:25;17.20;99.90
23207;DHT22;11773;52.570;13.052;2023-05-07T12:13:55;17.30;99.90
23207;DHT22;11773;52.570;13.052;2023-05-07T12:16:27;17.60;99.90
23207;DHT22;11773;52.570;13.052;2023-05-07T12:18:57;17.70;99.90
23207;DHT22;11773;52.570;13.052;2023-05-07T12:21:28;17.80;99.90
23207;DHT22;11773;52.570;13.052;2023-05-07T12:23:58;17.60;99.90
23207;DHT22;11773;52.570;13.052;2023-05-07T12:26:28;17.80;99.90
23207;DHT22;11773;52.570;13.052;2023-05-07T12:28:58;17.80;99.90
23207;DHT22;11773;52.570;13.052;2023-05-07T12:31:27;17.90;99.90
23207;DHT22;11773;52.570;13.052;2023-05-07T12:33:57;17.70;99.90
23207;DHT22;11773;52.570;13.052;2023-05-07T12:36:26;17.50;99.90
23207;DHT22;11773;52.570;13.052;2023-05-07T12:38:59;17.60;99.90
23207;DHT22;11773;52.570;13.052;2023-05-07T12:41:34;17.60;99.90
23207;DHT22;11773;52.570;13.052;2023-05-07T12:44:04;17.70;99.90
23207;DHT22;11773;52.570;13.052;2023-05-07T12:46:38;17.70;99.90
23207;DHT22;11773;52.570;13.052;2023-05-07T12:49:07;17.80;99.90
23207;DHT22;11773;52.570;13.052;2023-05-07T12:51:37;18.00;99.90
23207;DHT22;11773;52.570;13.052;2023-05-07T12:54:06;18.10;99.90
23207;DHT22;11773;52.570;13.052;2023-05-07T12:56:36;18.20;99.90
23207;DHT22;11773;52.570;13.052;2023-05-07T12:59:06;18.00;99.90
23207;DHT22;11773;52.570;13.052;2023-05-07T13:01:35;18.10;99.90
23207;DHT22;11773;52.570;13.052;2023-05-07T13:04:05;18.10;99.90
23207;DHT22;11773;52.570;13.052;2023-05-07T13:06:35;18.30;99.90
23207;DHT22;11773;52.570;13.052;2023-05-07T13:09:04;18.30;99.90
23207;DHT22;11773;52.570;13.052;2023-05-07T13:11:34;18.50;99.90
23207;DHT22;11773;52.570;13.052;2023-05-07T13:14:03;18.40;99.90
23207;DHT22;11773;52.570;13.052;2023-05-07T13:16:33;18.30;99.90
23207;DHT22;11773;52.570;13.052;2023-05-07T13:19:03;18.50;99.90
23207;DHT22;11773;52.570;13.052;2023-05-07T13:21:32;18.40;99.90
23207;DHT22;11773;52.570;13.052;2023-05-07T13:24:02;18.70;99.90
23207;DHT22;11773;52.570;13.052;2023-05-07T13:26:31;18.40;99.90
23207;DHT22;11773;52.570;13.052;2023-05-07T13:29:01;18.40;99.90
23207;DHT22;11773;52.570;13.052;2023-05-07T13:31:30;18.50;99.90
23207;DHT22;11773;52.570;13.052;2023-05-07T13:34:01;18.60;99.90
23207;DHT22;11773;52.570;13.052;2023-05-07T13:36:31;18.50;99.90
23207;DHT22;11773;52.570;13.052;2023-05-07T13:39:08;18.40;99.90
23207;DHT22;11773;52.570;13.052;2023-05-07T13:41:33;18.50;99.90
23207;DHT22;11773;52.570;13.052;2023-05-07T13:44:03;18.50;99.90
23207;DHT22;11773;52.570;13.052;2023-05-07T13:46:33;18.60;99.90
23207;DHT22;11773;52.570;13.052;2023-05-07T13:49:03;18.60;99.90
23207;DHT22;11773;52.570;13.052;2023-05-07T13:51:32;18.70;99.90
23207;DHT22;11773;52.570;13.052;2023-05-07T13:54:02;18.80;99.90
23207;DHT22;11773;52.570;13.052;2023-05-07T13:56:32;18.80;99.90
23207;DHT22;11773;52.570;13.052;2023-05-07T13:59:01;18.80;99.90
23207;DHT22;11773;52.570;13.052;2023-05-07T14:01:31;18.90;99.90
23207;DHT22;11773;52.570;13.052;2023-05-07T14:04:01;19.00;99.90
23207;DHT22;11773;52.570;13.052;2023-05-07T14:06:30;18.80;99.90
23207;DHT22;11773;52.570;13.052;2023-05-07T14:09:00;19.00;99.90
23207;DHT22;11773;52.570;13.052;2023-05-07T14:11:29;18.80;99.90
23207;DHT22;11773;52.570;13.052;2023-05-07T14:14:00;18.60;99.90
23207;DHT22;11773;52.570;13.052;2023-05-07T14:16:30;18.60;99.90
23207;DHT22;11773;52.570;13.052;2023-05-07T14:19:00;18.60;99.90
23207;DHT22;11773;52.570;13.052;2023-05-07T14:21:29;18.60;99.90
23207;DHT22;11773;52.570;13.052;2023-05-07T14:23:59;18.80;99.90
23207;DHT22;11773;52.570;13.052;2023-05-07T14:26:28;18.80;99.90
23207;DHT22;11773;52.570;13.052;2023-05-07T14:28:58;18.90;99.90
23207;DHT22;11773;52.570;13.052;2023-05-07T14:31:27;18.60;99.90
23207;DHT22;11773;52.570;13.052;2023-05-07T14:33:57;18.90;99.90
23207;DHT22;11773;52.570;13.052;2023-05-07T14:36:27;18.70;99.90
23207;DHT22;11773;52.570;13.052;2023-05-07T14:38:58;18.80;99.90
23207;DHT22;11773;52.570;13.052;2023-05-07T14:41:28;18.70;99.90
23207;DHT22;11773;52.570;13.052;2023-05-07T14:43:59;18.70;99.90
23207;DHT22;11773;52.570;13.052;2023-05-07T14:46:29;18.60;99.90
23207;DHT22;11773;52.570;13.052;2023-05-07T14:48:59;18.80;99.90
23207;DHT22;11773;52.570;13.052;2023-05-07T14:51:28;18.80;99.90
23207;DHT22;11773;52.570;13.052;2023-05-07T14:53:58;18.90;99.90
23207;DHT22;11773;52.570;13.052;2023-05-07T14:56:29;18.90;99.90
23207;DHT22;11773;52.570;13.052;2023-05-07T14:58:58;19.00;99.90
23207;DHT22;11773;52.570;13.052;2023-05-07T15:01:28;18.90;99.90
23207;DHT22;11773;52.570;13.052;2023-05-07T15:03:58;19.00;99.90
23207;DHT22;11773;52.570;13.052;2023-05-07T15:06:28;18.80;99.90
23207;DHT22;11773;52.570;13.052;2023-05-07T15:08:58;18.60;99.90
23207;DHT22;11773;52.570;13.052;2023-05-07T15:11:28;18.50;99.90
23207;DHT22;11773;52.570;13.052;2023-05-07T15:13:58;18.50;99.90
23207;DHT22;11773;52.570;13.052;2023-05-07T15:16:27;18.70;99.90
23207;DHT22;11773;52.570;13.052;2023-05-07T15:18:57;18.60;99.90
23207;DHT22;11773;52.570;13.052;2023-05-07T15:21:26;18.50;99.90
23207;DHT22;11773;52.570;13.052;2023-05-07T15:23:58;18.60;99.90
23207;DHT22;11773;52.570;13.052;2023-05-07T15:26:28;18.50;99.90
23207;DHT22;11773;52.570;13.052;2023-05-07T15:28:57;18.20;99.90
23207;DHT22;11773;52.570;13.052;2023-05-07T15:31:27;18.30;99.90
23207;DHT22;11773;52.570;13.052;2023-05-07T15:33:56;18.40;99.90
23207;DHT22;11773;52.570;13.052;2023-05-07T15:36:28;18.20;99.90
23207;DHT22;11773;52.570;13.052;2023-05-07T15:38:58;18.30;99.90
23207;DHT22;11773;52.570;13.052;2023-05-07T15:41:29;18.10;99.90
23207;DHT22;11773;52.570;13.052;2023-05-07T15:43:58;18.20;99.90
23207;DHT22;11773;52.570;13.052;2023-05-07T15:46:28;18.20;99.90